sensor_id;sensor_type;location;lat;lon;timestamp;temperature;humidity
27781;DHT22;15167;1.318;103.762;2022-07-09T00:00:52;28.90;99.90
27781;DHT22;15167;1.318;103.762;2022-07-09T00:03:20;28.90;99.90
27781;DHT22;15167;1.318;103.762;2022-07-09T00:05:46;28.90;99.90
27781;DHT22;15167;1.318;103.762;2022-07-09T00:08:12;28.90;99.90
27781;DHT22;15167;1.318;103.762;2022-07-09T00:10:38;29.00;99.90
27781;DHT22;15167;1.318;103.762;2022-07-09T00:13:04;29.00;99.90
27781;DHT22;15167;1.318;103.762;2022-07-09T00:15:30;29.00;99.90
27781;DHT22;15167;1.318;103.762;2022-07-09T00:17:56;29.00;99.90
27781;DHT22;15167;1.318;103.762;2022-07-09T00:20:23;29.00;99.90
27781;DHT22;15167;1.318;103.762;2022-07-09T00:22:49;29.10;99.90
27781;DHT22;15167;1.318;103.762;2022-07-09T00:25:16;29.10;99.90
27781;DHT22;15167;1.318;103.762;2022-07-09T00:27:42;29.10;99.90
27781;DHT22;15167;1.318;103.762;2022-07-09T00:30:08;29.10;99.90
27781;DHT22;15167;1.318;103.762;2022-07-09T00:32:34;29.20;99.90
27781;DHT22;15167;1.318;103.762;2022-07-09T00:35:00;29.20;99.90
27781;DHT22;15167;1.318;103.762;2022-07-09T00:37:26;29.20;99.90
27781;DHT22;15167;1.318;103.762;2022-07-09T00:39:53;29.20;99.90
27781;DHT22;15167;1.318;103.762;2022-07-09T00:42:19;29.20;99.90
27781;DHT22;15167;1.318;103.762;2022-07-09T00:44:45;29.20;99.90
27781;DHT22;15167;1.318;103.762;2022-07-09T00:47:12;29.30;99.90
27781;DHT22;15167;1.318;103.762;2022-07-09T00:49:39;29.40;99.90
27781;DHT22;15167;1.318;103.762;2022-07-09T00:52:06;29.40;99.90
27781;DHT22;15167;1.318;103.762;2022-07-09T00:54:32;29.50;99.90
27781;DHT22;15167;1.318;103.762;2022-07-09T00:57:01;29.50;99.90
27781;DHT22;15167;1.318;103.762;2022-07-09T00:59:29;29.60;99.90
27781;DHT22;15167;1.318;103.762;2022-07-09T01:01:55;29.60;99.90
27781;DHT22;15167;1.318;103.762;2022-07-09T01:04:22;29.70;99.90
27781;DHT22;15167;1.318;103.762;2022-07-09T01:06:48;29.80;99.90
27781;DHT22;15167;1.318;103.762;2022-07-09T01:09:14;29.90;99.90
27781;DHT22;15167;1.318;103.762;2022-07-09T01:11:40;30.00;99.90
27781;DHT22;15167;1.318;103.762;2022-07-09T01:14:06;30.00;99.90
27781;DHT22;15167;1.318;103.762;2022-07-09T01:16:33;30.10;99.90
27781;DHT22;15167;1.318;103.762;2022-07-09T01:18:59;30.10;99.90
27781;DHT22;15167;1.318;103.762;2022-07-09T01:21:25;30.30;99.90
27781;DHT22;15167;1.318;103.762;2022-07-09T01:23:51;30.30;99.90
27781;DHT22;15167;1.318;103.762;2022-07-09T01:26:17;30.40;99.90
27781;DHT22;15167;1.318;103.762;2022-07-09T01:28:47;30.50;99.90
27781;DHT22;15167;1.318;103.762;2022-07-09T01:31:14;30.50;99.60
27781;DHT22;15167;1.318;103.762;2022-07-09T01:33:40;30.60;99.90
27781;DHT22;15167;1.318;103.762;2022-07-09T01:36:07;30.60;99.90
27781;DHT22;15167;1.318;103.762;2022-07-09T01:38:33;30.70;99.90
27781;DHT22;15167;1.318;103.762;2022-07-09T01:40:59;30.80;99.90
27781;DHT22;15167;1.318;103.762;2022-07-09T01:43:25;30.80;99.90
27781;DHT22;15167;1.318;103.762;2022-07-09T01:45:52;31.00;99.90
27781;DHT22;15167;1.318;103.762;2022-07-09T01:48:18;31.00;99.90
27781;DHT22;15167;1.318;103.762;2022-07-09T01:50:44;31.00;99.90
27781;DHT22;15167;1.318;103.762;2022-07-09T01:53:10;31.10;99.90
27781;DHT22;15167;1.318;103.762;2022-07-09T01:55:36;31.10;99.90
27781;DHT22;15167;1.318;103.762;2022-07-09T01:58:02;31.20;99.70
27781;DHT22;15167;1.318;103.762;2022-07-09T02:00:29;31.30;98.80
27781;DHT22;15167;1.318;103.762;2022-07-09T02:02:55;31.30;98.50
27781;DHT22;15167;1.318;103.762;2022-07-09T02:05:21;31.40;97.60
27781;DHT22;15167;1.318;103.762;2022-07-09T02:07:47;31.50;96.60
27781;DHT22;15167;1.318;103.762;2022-07-09T02:10:14;31.50;96.30
27781;DHT22;15167;1.318;103.762;2022-07-09T02:12:40;31.50;95.90
27781;DHT22;15167;1.318;103.762;2022-07-09T02:15:06;31.50;94.40
27781;DHT22;15167;1.318;103.762;2022-07-09T02:17:34;31.50;93.70
27781;DHT22;15167;1.318;103.762;2022-07-09T02:20:00;31.60;93.40
27781;DHT22;15167;1.318;103.762;2022-07-09T02:22:26;31.70;92.50
27781;DHT22;15167;1.318;103.762;2022-07-09T02:24:53;31.80;90.90
27781;DHT22;15167;1.318;103.762;2022-07-09T02:27:19;31.80;89.20
27781;DHT22;15167;1.318;103.762;2022-07-09T02:29:45;31.90;87.70
27781;DHT22;15167;1.318;103.762;2022-07-09T02:32:11;31.80;86.60
27781;DHT22;15167;1.318;103.762;2022-07-09T02:34:38;31.70;86.70
27781;DHT22;15167;1.318;103.762;2022-07-09T02:37:04;31.60;84.70
27781;DHT22;15167;1.318;103.762;2022-07-09T02:39:31;31.70;83.70
27781;DHT22;15167;1.318;103.762;2022-07-09T02:41:57;31.70;83.30
27781;DHT22;15167;1.318;103.762;2022-07-09T02:44:23;31.80;80.80
27781;DHT22;15167;1.318;103.762;2022-07-09T02:46:49;31.80;80.50
27781;DHT22;15167;1.318;103.762;2022-07-09T02:49:16;31.80;80.60
27781;DHT22;15167;1.318;103.762;2022-07-09T02:51:42;31.80;81.20
27781;DHT22;15167;1.318;103.762;2022-07-09T02:54:08;31.80;81.40
27781;DHT22;15167;1.318;103.762;2022-07-09T02:56:34;31.80;82.40
27781;DHT22;15167;1.318;103.762;2022-07-09T02:59:00;31.80;78.00
27781;DHT22;15167;1.318;103.762;2022-07-09T03:01:28;31.90;75.60
27781;DHT22;15167;1.318;103.762;2022-07-09T03:03:54;31.90;71.90
27781;DHT22;15167;1.318;103.762;2022-07-09T03:06:21;32.00;69.70
27781;DHT22;15167;1.318;103.762;2022-07-09T03:08:48;32.00;70.10
27781;DHT22;15167;1.318;103.762;2022-07-09T03:11:14;32.10;67.30
27781;DHT22;15167;1.318;103.762;2022-07-09T03:13:40;32.20;61.00
27781;DHT22;15167;1.318;103.762;2022-07-09T03:16:06;32.30;56.60
27781;DHT22;15167;1.318;103.762;2022-07-09T03:18:32;32.40;54.60
27781;DHT22;15167;1.318;103.762;2022-07-09T03:20:59;32.40;54.80
27781;DHT22;15167;1.318;103.762;2022-07-09T03:23:25;32.60;52.10
27781;DHT22;15167;1.318;103.762;2022-07-09T03:25:51;32.60;51.20
27781;DHT22;15167;1.318;103.762;2022-07-09T03:28:17;32.70;50.40
27781;DHT22;15167;1.318;103.762;2022-07-09T03:30:44;32.80;48.70
27781;DHT22;15167;1.318;103.762;2022-07-09T03:33:10;32.90;45.80
27781;DHT22;15167;1.318;103.762;2022-07-09T03:35:36;33.00;44.40
27781;DHT22;15167;1.318;103.762;2022-07-09T03:38:04;33.10;43.40
27781;DHT22;15167;1.318;103.762;2022-07-09T03:40:30;33.10;44.10
27781;DHT22;15167;1.318;103.762;2022-07-09T03:42:56;33.20;42.10
27781;DHT22;15167;1.318;103.762;2022-07-09T03:45:23;33.20;39.60
27781;DHT22;15167;1.318;103.762;2022-07-09T03:47:49;33.20;37.00
27781;DHT22;15167;1.318;103.762;2022-07-09T03:50:15;33.20;35.20
27781;DHT22;15167;1.318;103.762;2022-07-09T03:52:41;33.30;35.50
27781;DHT22;15167;1.318;103.762;2022-07-09T03:55:08;33.30;35.70
27781;DHT22;15167;1.318;103.762;2022-07-09T03:57:34;33.40;36.20
27781;DHT22;15167;1.318;103.762;2022-07-09T04:00:00;33.40;38.00
27781;DHT22;15167;1.318;103.762;2022-07-09T04:02:26;33.50;37.00
27781;DHT22;15167;1.318;103.762;2022-07-09T04:04:53;33.60;38.40
27781;DHT22;15167;1.318;103.762;2022-07-09T04:07:22;33.60;40.50
27781;DHT22;15167;1.318;103.762;2022-07-09T04:09:48;33.70;35.90
27781;DHT22;15167;1.318;103.762;2022-07-09T04:12:14;33.70;36.30
27781;DHT22;15167;1.318;103.762;2022-07-09T04:14:40;33.90;34.20
27781;DHT22;15167;1.318;103.762;2022-07-09T04:17:06;33.90;34.70
27781;DHT22;15167;1.318;103.762;2022-07-09T04:19:33;33.90;33.90
27781;DHT22;15167;1.318;103.762;2022-07-09T04:21:59;34.00;34.20
27781;DHT22;15167;1.318;103.762;2022-07-09T04:24:25;34.00;34.20
27781;DHT22;15167;1.318;103.762;2022-07-09T04:26:51;34.20;33.50
27781;DHT22;15167;1.318;103.762;2022-07-09T04:29:18;34.40;33.70
27781;DHT22;15167;1.318;103.762;2022-07-09T04:31:44;34.50;32.70
27781;DHT22;15167;1.318;103.762;2022-07-09T04:34:10;34.60;32.60
27781;DHT22;15167;1.318;103.762;2022-07-09T04:36:36;34.80;32.50
27781;DHT22;15167;1.318;103.762;2022-07-09T04:39:03;34.90;32.40
27781;DHT22;15167;1.318;103.762;2022-07-09T04:41:29;35.10;31.10
27781;DHT22;15167;1.318;103.762;2022-07-09T04:43:55;35.20;30.00
27781;DHT22;15167;1.318;103.762;2022-07-09T04:46:21;35.30;29.10
27781;DHT22;15167;1.318;103.762;2022-07-09T04:48:48;35.50;28.50
27781;DHT22;15167;1.318;103.762;2022-07-09T04:51:14;35.70;26.10
27781;DHT22;15167;1.318;103.762;2022-07-09T04:53:40;36.00;23.80
27781;DHT22;15167;1.318;103.762;2022-07-09T04:56:07;36.10;22.80
27781;DHT22;15167;1.318;103.762;2022-07-09T04:58:33;36.30;21.90
27781;DHT22;15167;1.318;103.762;2022-07-09T05:00:59;36.40;20.70
27781;DHT22;15167;1.318;103.762;2022-07-09T05:03:25;36.80;19.10
27781;DHT22;15167;1.318;103.762;2022-07-09T05:05:51;37.00;17.00
27781;DHT22;15167;1.318;103.762;2022-07-09T05:08:18;37.40;14.80
27781;DHT22;15167;1.318;103.762;2022-07-09T05:10:44;37.70;13.00
27781;DHT22;15167;1.318;103.762;2022-07-09T05:13:10;38.00;11.30
27781;DHT22;15167;1.318;103.762;2022-07-09T05:15:36;38.10;9.60
27781;DHT22;15167;1.318;103.762;2022-07-09T05:18:02;38.30;8.80
27781;DHT22;15167;1.318;103.762;2022-07-09T05:20:29;38.40;7.70
27781;DHT22;15167;1.318;103.762;2022-07-09T05:22:55;38.60;6.50
27781;DHT22;15167;1.318;103.762;2022-07-09T05:25:21;38.60;5.60
27781;DHT22;15167;1.318;103.762;2022-07-09T05:27:48;38.60;5.10
27781;DHT22;15167;1.318;103.762;2022-07-09T05:30:14;38.90;3.90
27781;DHT22;15167;1.318;103.762;2022-07-09T05:32:41;39.00;3.40
27781;DHT22;15167;1.318;103.762;2022-07-09T05:35:07;39.10;2.90
27781;DHT22;15167;1.318;103.762;2022-07-09T05:37:39;39.20;2.20
27781;DHT22;15167;1.318;103.762;2022-07-09T05:40:06;39.50;2.20
27781;DHT22;15167;1.318;103.762;2022-07-09T05:42:32;39.70;1.00
27781;DHT22;15167;1.318;103.762;2022-07-09T05:44:58;40.00;1.00
27781;DHT22;15167;1.318;103.762;2022-07-09T05:47:25;40.00;1.00
27781;DHT22;15167;1.318;103.762;2022-07-09T05:49:51;39.90;1.00
27781;DHT22;15167;1.318;103.762;2022-07-09T05:52:17;40.10;1.00
27781;DHT22;15167;1.318;103.762;2022-07-09T05:54:43;40.40;1.00
27781;DHT22;15167;1.318;103.762;2022-07-09T05:57:10;40.40;1.00
27781;DHT22;15167;1.318;103.762;2022-07-09T05:59:36;40.40;1.00
27781;DHT22;15167;1.318;103.762;2022-07-09T06:02:02;40.40;1.00
27781;DHT22;15167;1.318;103.762;2022-07-09T06:04:31;40.60;1.00
27781;DHT22;15167;1.318;103.762;2022-07-09T06:06:57;40.70;1.00
27781;DHT22;15167;1.318;103.762;2022-07-09T06:09:23;40.80;1.00
27781;DHT22;15167;1.318;103.762;2022-07-09T06:11:49;40.80;1.00
27781;DHT22;15167;1.318;103.762;2022-07-09T06:14:15;40.70;1.00
27781;DHT22;15167;1.318;103.762;2022-07-09T06:16:42;40.60;1.00
27781;DHT22;15167;1.318;103.762;2022-07-09T06:19:08;40.60;1.00
27781;DHT22;15167;1.318;103.762;2022-07-09T06:21:34;40.60;1.00
27781;DHT22;15167;1.318;103.762;2022-07-09T06:24:00;40.50;1.00
27781;DHT22;15167;1.318;103.762;2022-07-09T06:26:27;40.80;1.00
27781;DHT22;15167;1.318;103.762;2022-07-09T06:28:53;40.80;1.00
27781;DHT22;15167;1.318;103.762;2022-07-09T06:31:19;41.10;1.00
27781;DHT22;15167;1.318;103.762;2022-07-09T06:33:45;41.30;1.00
27781;DHT22;15167;1.318;103.762;2022-07-09T06:36:11;41.70;1.00
27781;DHT22;15167;1.318;103.762;2022-07-09T06:38:37;41.80;1.00
27781;DHT22;15167;1.318;103.762;2022-07-09T06:41:23;41.80;1.00
27781;DHT22;15167;1.318;103.762;2022-07-09T06:43:49;41.80;1.00
27781;DHT22;15167;1.318;103.762;2022-07-09T06:46:15;41.90;1.00
27781;DHT22;15167;1.318;103.762;2022-07-09T06:48:41;42.10;1.00
27781;DHT22;15167;1.318;103.762;2022-07-09T06:51:08;42.40;1.00
27781;DHT22;15167;1.318;103.762;2022-07-09T06:53:34;42.50;1.00
27781;DHT22;15167;1.318;103.762;2022-07-09T06:56:00;42.60;1.00
27781;DHT22;15167;1.318;103.762;2022-07-09T06:58:26;42.60;1.00
27781;DHT22;15167;1.318;103.762;2022-07-09T07:00:52;42.60;1.00
27781;DHT22;15167;1.318;103.762;2022-07-09T07:03:18;42.50;1.00
27781;DHT22;15167;1.318;103.762;2022-07-09T07:05:44;42.20;1.00
27781;DHT22;15167;1.318;103.762;2022-07-09T07:08:10;42.10;1.00
27781;DHT22;15167;1.318;103.762;2022-07-09T07:10:37;41.80;1.00
27781;DHT22;15167;1.318;103.762;2022-07-09T07:13:03;41.40;1.00
27781;DHT22;15167;1.318;103.762;2022-07-09T07:15:29;41.30;1.00
27781;DHT22;15167;1.318;103.762;2022-07-09T07:17:55;41.00;1.00
27781;DHT22;15167;1.318;103.762;2022-07-09T07:20:21;40.80;1.00
27781;DHT22;15167;1.318;103.762;2022-07-09T07:22:50;40.50;1.00
27781;DHT22;15167;1.318;103.762;2022-07-09T07:25:16;40.20;1.00
27781;DHT22;15167;1.318;103.762;2022-07-09T07:27:43;40.70;1.00
27781;DHT22;15167;1.318;103.762;2022-07-09T07:30:09;41.00;1.00
27781;DHT22;15167;1.318;103.762;2022-07-09T07:32:35;41.30;1.00
27781;DHT22;15167;1.318;103.762;2022-07-09T07:35:01;41.40;1.00
27781;DHT22;15167;1.318;103.762;2022-07-09T07:37:28;41.20;1.00
27781;DHT22;15167;1.318;103.762;2022-07-09T07:39:54;41.00;1.00
27781;DHT22;15167;1.318;103.762;2022-07-09T07:42:21;40.70;1.00
27781;DHT22;15167;1.318;103.762;2022-07-09T07:44:47;40.80;1.00
27781;DHT22;15167;1.318;103.762;2022-07-09T07:47:13;40.80;1.00
27781;DHT22;15167;1.318;103.762;2022-07-09T07:49:39;40.60;1.00
27781;DHT22;15167;1.318;103.762;2022-07-09T07:52:05;40.40;1.00
27781;DHT22;15167;1.318;103.762;2022-07-09T07:54:32;40.20;1.00
27781;DHT22;15167;1.318;103.762;2022-07-09T07:56:58;40.00;1.00
27781;DHT22;15167;1.318;103.762;2022-07-09T07:59:25;40.00;1.00
27781;DHT22;15167;1.318;103.762;2022-07-09T08:01:51;39.90;1.00
27781;DHT22;15167;1.318;103.762;2022-07-09T08:04:17;39.90;1.00
27781;DHT22;15167;1.318;103.762;2022-07-09T08:06:43;39.90;1.00
27781;DHT22;15167;1.318;103.762;2022-07-09T08:09:09;39.80;1.00
27781;DHT22;15167;1.318;103.762;2022-07-09T08:11:36;39.60;1.00
27781;DHT22;15167;1.318;103.762;2022-07-09T08:14:02;39.20;1.00
27781;DHT22;15167;1.318;103.762;2022-07-09T08:16:28;38.80;1.00
27781;DHT22;15167;1.318;103.762;2022-07-09T08:18:54;38.50;1.00
27781;DHT22;15167;1.318;103.762;2022-07-09T08:21:20;38.50;1.00
27781;DHT22;15167;1.318;103.762;2022-07-09T08:23:46;38.10;1.00
27781;DHT22;15167;1.318;103.762;2022-07-09T08:26:23;37.90;1.00
27781;DHT22;15167;1.318;103.762;2022-07-09T08:28:50;37.80;1.00
27781;DHT22;15167;1.318;103.762;2022-07-09T08:31:16;37.90;1.00
27781;DHT22;15167;1.318;103.762;2022-07-09T08:33:43;37.90;1.00
27781;DHT22;15167;1.318;103.762;2022-07-09T08:36:09;37.60;1.00
27781;DHT22;15167;1.318;103.762;2022-07-09T08:38:35;37.30;1.00
27781;DHT22;15167;1.318;103.762;2022-07-09T08:41:03;37.30;1.00
27781;DHT22;15167;1.318;103.762;2022-07-09T08:43:30;37.30;1.00
27781;DHT22;15167;1.318;103.762;2022-07-09T08:45:57;37.20;1.00
27781;DHT22;15167;1.318;103.762;2022-07-09T08:48:24;37.00;1.70
27781;DHT22;15167;1.318;103.762;2022-07-09T08:50:51;37.00;3.00
27781;DHT22;15167;1.318;103.762;2022-07-09T08:53:18;36.80;3.60
27781;DHT22;15167;1.318;103.762;2022-07-09T08:55:44;36.80;3.90
27781;DHT22;15167;1.318;103.762;2022-07-09T08:58:11;36.70;2.40
27781;DHT22;15167;1.318;103.762;2022-07-09T09:00:39;36.60;3.10
27781;DHT22;15167;1.318;103.762;2022-07-09T09:03:05;36.70;2.60
27781;DHT22;15167;1.318;103.762;2022-07-09T09:05:31;36.60;4.00
27781;DHT22;15167;1.318;103.762;2022-07-09T09:07:58;36.60;6.30
27781;DHT22;15167;1.318;103.762;2022-07-09T09:10:25;36.70;8.00
27781;DHT22;15167;1.318;103.762;2022-07-09T09:12:56;36.40;8.60
27781;DHT22;15167;1.318;103.762;2022-07-09T09:15:22;36.30;10.80
27781;DHT22;15167;1.318;103.762;2022-07-09T09:17:48;36.00;9.80
27781;DHT22;15167;1.318;103.762;2022-07-09T09:20:14;36.00;11.60
27781;DHT22;15167;1.318;103.762;2022-07-09T09:22:44;36.00;13.50
27781;DHT22;15167;1.318;103.762;2022-07-09T09:25:17;36.20;14.60
27781;DHT22;15167;1.318;103.762;2022-07-09T09:27:57;36.20;14.00
27781;DHT22;15167;1.318;103.762;2022-07-09T09:30:24;35.90;15.70
27781;DHT22;15167;1.318;103.762;2022-07-09T09:32:57;35.60;18.60
27781;DHT22;15167;1.318;103.762;2022-07-09T09:35:24;35.50;22.30
27781;DHT22;15167;1.318;103.762;2022-07-09T09:37:51;35.50;23.10
27781;DHT22;15167;1.318;103.762;2022-07-09T09:40:17;35.50;23.30
27781;DHT22;15167;1.318;103.762;2022-07-09T09:42:43;35.30;25.90
27781;DHT22;15167;1.318;103.762;2022-07-09T09:45:14;35.30;26.80
27781;DHT22;15167;1.318;103.762;2022-07-09T09:47:47;35.20;29.80
27781;DHT22;15167;1.318;103.762;2022-07-09T09:50:17;35.00;31.60
27781;DHT22;15167;1.318;103.762;2022-07-09T09:52:47;35.00;31.30
27781;DHT22;15167;1.318;103.762;2022-07-09T09:55:14;35.00;32.20
27781;DHT22;15167;1.318;103.762;2022-07-09T09:57:41;34.80;33.70
27781;DHT22;15167;1.318;103.762;2022-07-09T10:00:07;34.60;34.50
27781;DHT22;15167;1.318;103.762;2022-07-09T10:02:34;34.40;37.90
27781;DHT22;15167;1.318;103.762;2022-07-09T10:05:01;34.40;38.50
27781;DHT22;15167;1.318;103.762;2022-07-09T10:07:27;34.30;38.20
27781;DHT22;15167;1.318;103.762;2022-07-09T10:09:58;34.30;38.70
27781;DHT22;15167;1.318;103.762;2022-07-09T10:12:28;34.30;42.60
27781;DHT22;15167;1.318;103.762;2022-07-09T10:14:55;34.20;44.50
27781;DHT22;15167;1.318;103.762;2022-07-09T10:17:22;34.00;47.30
27781;DHT22;15167;1.318;103.762;2022-07-09T10:19:56;34.00;48.10
27781;DHT22;15167;1.318;103.762;2022-07-09T10:22:39;33.90;48.60
27781;DHT22;15167;1.318;103.762;2022-07-09T10:25:10;33.80;50.20
27781;DHT22;15167;1.318;103.762;2022-07-09T10:27:46;33.70;52.40
27781;DHT22;15167;1.318;103.762;2022-07-09T10:33:00;33.60;54.10
27781;DHT22;15167;1.318;103.762;2022-07-09T10:35:27;33.50;55.90
27781;DHT22;15167;1.318;103.762;2022-07-09T10:37:53;33.40;57.10
27781;DHT22;15167;1.318;103.762;2022-07-09T10:40:20;33.50;56.50
27781;DHT22;15167;1.318;103.762;2022-07-09T10:43:00;33.40;57.20
27781;DHT22;15167;1.318;103.762;2022-07-09T10:47:53;33.40;59.10
27781;DHT22;15167;1.318;103.762;2022-07-09T10:50:19;33.30;59.90
27781;DHT22;15167;1.318;103.762;2022-07-09T10:52:46;33.20;63.10
27781;DHT22;15167;1.318;103.762;2022-07-09T10:55:15;33.20;67.30
27781;DHT22;15167;1.318;103.762;2022-07-09T10:57:41;33.10;71.30
27781;DHT22;15167;1.318;103.762;2022-07-09T11:00:07;33.00;75.40
27781;DHT22;15167;1.318;103.762;2022-07-09T11:02:33;33.00;76.80
27781;DHT22;15167;1.318;103.762;2022-07-09T11:04:59;32.90;78.20
27781;DHT22;15167;1.318;103.762;2022-07-09T11:07:26;32.90;80.00
27781;DHT22;15167;1.318;103.762;2022-07-09T11:09:53;32.80;79.30
27781;DHT22;15167;1.318;103.762;2022-07-09T11:12:20;32.80;79.60
27781;DHT22;15167;1.318;103.762;2022-07-09T11:14:47;32.70;80.40
27781;DHT22;15167;1.318;103.762;2022-07-09T11:17:14;32.70;81.20
27781;DHT22;15167;1.318;103.762;2022-07-09T11:19:40;32.60;81.00
27781;DHT22;15167;1.318;103.762;2022-07-09T11:22:07;32.60;81.90
27781;DHT22;15167;1.318;103.762;2022-07-09T11:24:33;32.60;81.50
27781;DHT22;15167;1.318;103.762;2022-07-09T11:27:03;32.40;84.00
27781;DHT22;15167;1.318;103.762;2022-07-09T11:29:29;32.20;87.10
27781;DHT22;15167;1.318;103.762;2022-07-09T11:31:56;32.10;88.50
27781;DHT22;15167;1.318;103.762;2022-07-09T11:34:22;32.00;90.00
27781;DHT22;15167;1.318;103.762;2022-07-09T11:36:52;32.00;90.70
27781;DHT22;15167;1.318;103.762;2022-07-09T11:39:22;32.00;91.30
27781;DHT22;15167;1.318;103.762;2022-07-09T11:41:49;32.00;90.80
27781;DHT22;15167;1.318;103.762;2022-07-09T11:44:24;32.00;90.20
27781;DHT22;15167;1.318;103.762;2022-07-09T11:49:32;32.10;87.30
27781;DHT22;15167;1.318;103.762;2022-07-09T11:51:58;32.10;86.70
27781;DHT22;15167;1.318;103.762;2022-07-09T11:54:28;32.10;87.60
27781;DHT22;15167;1.318;103.762;2022-07-09T11:56:54;32.00;89.50
27781;DHT22;15167;1.318;103.762;2022-07-09T11:59:27;32.00;89.80
27781;DHT22;15167;1.318;103.762;2022-07-09T12:01:59;32.00;90.00
27781;DHT22;15167;1.318;103.762;2022-07-09T12:04:29;31.90;89.80
27781;DHT22;15167;1.318;103.762;2022-07-09T12:06:56;31.80;89.30
27781;DHT22;15167;1.318;103.762;2022-07-09T12:09:29;31.80;89.50
27781;DHT22;15167;1.318;103.762;2022-07-09T12:11:56;31.80;88.50
27781;DHT22;15167;1.318;103.762;2022-07-09T12:14:22;31.80;89.50
27781;DHT22;15167;1.318;103.762;2022-07-09T12:16:48;31.80;88.30
27781;DHT22;15167;1.318;103.762;2022-07-09T12:19:15;31.80;88.50
27781;DHT22;15167;1.318;103.762;2022-07-09T12:21:41;31.80;87.90
27781;DHT22;15167;1.318;103.762;2022-07-09T12:24:07;31.80;85.80
27781;DHT22;15167;1.318;103.762;2022-07-09T12:26:33;31.80;81.40
27781;DHT22;15167;1.318;103.762;2022-07-09T12:28:59;31.80;75.80
27781;DHT22;15167;1.318;103.762;2022-07-09T12:31:25;31.70;79.50
27781;DHT22;15167;1.318;103.762;2022-07-09T12:33:52;31.60;82.40
27781;DHT22;15167;1.318;103.762;2022-07-09T12:36:18;31.60;83.80
27781;DHT22;15167;1.318;103.762;2022-07-09T12:38:44;31.60;85.00
27781;DHT22;15167;1.318;103.762;2022-07-09T12:41:10;31.60;87.20
27781;DHT22;15167;1.318;103.762;2022-07-09T12:43:36;31.60;89.70
27781;DHT22;15167;1.318;103.762;2022-07-09T12:46:03;31.60;90.20
27781;DHT22;15167;1.318;103.762;2022-07-09T12:48:29;31.60;91.50
27781;DHT22;15167;1.318;103.762;2022-07-09T12:50:55;31.60;91.80
27781;DHT22;15167;1.318;103.762;2022-07-09T12:53:21;31.50;93.40
27781;DHT22;15167;1.318;103.762;2022-07-09T12:55:47;31.40;94.10
27781;DHT22;15167;1.318;103.762;2022-07-09T12:58:13;31.40;94.80
27781;DHT22;15167;1.318;103.762;2022-07-09T13:00:39;31.40;95.20
27781;DHT22;15167;1.318;103.762;2022-07-09T13:03:06;31.30;95.80
27781;DHT22;15167;1.318;103.762;2022-07-09T13:05:32;31.40;96.20
27781;DHT22;15167;1.318;103.762;2022-07-09T13:07:58;31.30;96.80
27781;DHT22;15167;1.318;103.762;2022-07-09T13:10:24;31.20;97.30
27781;DHT22;15167;1.318;103.762;2022-07-09T13:12:50;31.20;97.70
27781;DHT22;15167;1.318;103.762;2022-07-09T13:15:16;31.20;98.30
27781;DHT22;15167;1.318;103.762;2022-07-09T13:17:49;31.20;98.40
27781;DHT22;15167;1.318;103.762;2022-07-09T13:20:16;31.10;98.90
27781;DHT22;15167;1.318;103.762;2022-07-09T13:22:42;31.10;98.70
27781;DHT22;15167;1.318;103.762;2022-07-09T13:25:09;31.20;99.20
27781;DHT22;15167;1.318;103.762;2022-07-09T13:27:35;31.20;98.90
27781;DHT22;15167;1.318;103.762;2022-07-09T13:30:01;31.20;98.90
27781;DHT22;15167;1.318;103.762;2022-07-09T13:32:27;31.20;99.60
27781;DHT22;15167;1.318;103.762;2022-07-09T13:34:54;31.20;99.80
27781;DHT22;15167;1.318;103.762;2022-07-09T13:37:20;31.30;99.00
27781;DHT22;15167;1.318;103.762;2022-07-09T13:39:46;31.30;99.40
27781;DHT22;15167;1.318;103.762;2022-07-09T13:42:13;31.30;99.70
27781;DHT22;15167;1.318;103.762;2022-07-09T13:44:39;31.30;99.40
27781;DHT22;15167;1.318;103.762;2022-07-09T13:47:05;31.20;99.80
27781;DHT22;15167;1.318;103.762;2022-07-09T13:49:31;31.20;99.90
27781;DHT22;15167;1.318;103.762;2022-07-09T13:51:58;31.20;99.90
27781;DHT22;15167;1.318;103.762;2022-07-09T13:54:24;31.20;99.90
27781;DHT22;15167;1.318;103.762;2022-07-09T13:56:50;31.20;99.90
27781;DHT22;15167;1.318;103.762;2022-07-09T13:59:16;31.20;99.90
27781;DHT22;15167;1.318;103.762;2022-07-09T14:01:42;31.20;99.90
27781;DHT22;15167;1.318;103.762;2022-07-09T14:04:09;31.10;99.90
27781;DHT22;15167;1.318;103.762;2022-07-09T14:06:36;31.10;99.90
27781;DHT22;15167;1.318;103.762;2022-07-09T14:09:02;31.00;99.90
27781;DHT22;15167;1.318;103.762;2022-07-09T14:11:28;31.00;99.90
27781;DHT22;15167;1.318;103.762;2022-07-09T14:13:54;31.00;99.90
27781;DHT22;15167;1.318;103.762;2022-07-09T14:16:22;30.90;99.90
27781;DHT22;15167;1.318;103.762;2022-07-09T14:18:48;30.90;99.90
27781;DHT22;15167;1.318;103.762;2022-07-09T14:21:14;30.80;99.90
27781;DHT22;15167;1.318;103.762;2022-07-09T14:23:40;30.80;99.90
27781;DHT22;15167;1.318;103.762;2022-07-09T14:26:07;30.70;99.90
27781;DHT22;15167;1.318;103.762;2022-07-09T14:28:33;30.70;99.90
27781;DHT22;15167;1.318;103.762;2022-07-09T14:30:59;30.80;99.90
27781;DHT22;15167;1.318;103.762;2022-07-09T14:33:25;30.80;99.90
27781;DHT22;15167;1.318;103.762;2022-07-09T14:35:52;30.80;99.90
27781;DHT22;15167;1.318;103.762;2022-07-09T14:38:18;30.80;99.90
27781;DHT22;15167;1.318;103.762;2022-07-09T14:40:44;30.80;99.90
27781;DHT22;15167;1.318;103.762;2022-07-09T14:43:10;30.70;99.90
27781;DHT22;15167;1.318;103.762;2022-07-09T14:45:37;30.70;99.90
27781;DHT22;15167;1.318;103.762;2022-07-09T14:48:03;30.70;99.90
27781;DHT22;15167;1.318;103.762;2022-07-09T14:50:31;30.70;99.90
27781;DHT22;15167;1.318;103.762;2022-07-09T14:52:58;30.70;99.90
27781;DHT22;15167;1.318;103.762;2022-07-09T14:55:24;30.70;99.90
27781;DHT22;15167;1.318;103.762;2022-07-09T14:57:51;30.70;99.90
27781;DHT22;15167;1.318;103.762;2022-07-09T15:00:17;30.70;99.90
27781;DHT22;15167;1.318;103.762;2022-07-09T15:02:43;30.80;99.90
27781;DHT22;15167;1.318;103.762;2022-07-09T15:05:09;30.80;99.90
27781;DHT22;15167;1.318;103.762;2022-07-09T15:07:35;30.80;99.90
27781;DHT22;15167;1.318;103.762;2022-07-09T15:10:03;30.70;99.90
27781;DHT22;15167;1.318;103.762;2022-07-09T15:12:29;30.70;99.90
27781;DHT22;15167;1.318;103.762;2022-07-09T15:14:55;30.60;99.90
27781;DHT22;15167;1.318;103.762;2022-07-09T15:17:21;30.60;99.90
27781;DHT22;15167;1.318;103.762;2022-07-09T15:19:47;30.60;99.90
27781;DHT22;15167;1.318;103.762;2022-07-09T15:22:13;30.60;99.90
27781;DHT22;15167;1.318;103.762;2022-07-09T15:24:41;30.60;99.90